PRSMR SBSJ-SBSJ
Flight info
| Callsign | PRSMR |
|---|---|
| Flight time | 1h 3m |
| Altitude | 5000 |
| Route | REA |
| Aircraft | C152/L-S/C |
Departure
| Time | 2026-04-27 17:22 |
|---|---|
| Airport | Professor Urbano Ernesto Stumpf Airport (SBSJ) |
Arrival
| Time | 2026-04-27 18:25 |
|---|---|
| Airport | Professor Urbano Ernesto Stumpf Airport (SBSJ) |
| Time | Latitude | Longitude | Altitude | Speed | Heading |
|---|---|---|---|---|---|
| 2026-04-27 17:03 | -23.24654 | -45.85929 | 2136 ft | 0 kts | 350° |
| 2026-04-27 17:09 | -23.24649 | -45.85929 | 2136 ft | 0 kts | 22° |
| 2026-04-27 17:09 | -23.24611 | -45.85886 | 2136 ft | 12 kts | 43° |
| 2026-04-27 17:10 | -23.24535 | -45.85808 | 2136 ft | 16 kts | 43° |
| 2026-04-27 17:10 | -23.24450 | -45.85720 | 2136 ft | 17 kts | 43° |
| 2026-04-27 17:10 | -23.24361 | -45.85625 | 2137 ft | 18 kts | 43° |
| 2026-04-27 17:10 | -23.24269 | -45.85526 | 2137 ft | 19 kts | 41° |
| 2026-04-27 17:11 | -23.24176 | -45.85425 | 2137 ft | 16 kts | 43° |
| 2026-04-27 17:11 | -23.23993 | -45.85290 | 2137 ft | 16 kts | 1° |
| 2026-04-27 17:11 | -23.23881 | -45.85286 | 2137 ft | 15 kts | 3° |
| 2026-04-27 17:12 | -23.23689 | -45.85329 | 2137 ft | 14 kts | 312° |
| 2026-04-27 17:12 | -23.23624 | -45.85307 | 2137 ft | 11 kts | 42° |
| 2026-04-27 17:12 | -23.23558 | -45.85251 | 2137 ft | 12 kts | 358° |
| 2026-04-27 17:13 | -23.23484 | -45.85298 | 2137 ft | 12 kts | 322° |
| 2026-04-27 17:13 | -23.23424 | -45.85361 | 2137 ft | 11 kts | 314° |
| 2026-04-27 17:13 | -23.23365 | -45.85425 | 2137 ft | 11 kts | 314° |
| 2026-04-27 17:13 | -23.23307 | -45.85488 | 2137 ft | 11 kts | 315° |
| 2026-04-27 17:14 | -23.23246 | -45.85552 | 2137 ft | 12 kts | 314° |
| 2026-04-27 17:14 | -23.23185 | -45.85620 | 2137 ft | 12 kts | 315° |
| 2026-04-27 17:14 | -23.23121 | -45.85690 | 2137 ft | 13 kts | 313° |
| 2026-04-27 17:14 | -23.23056 | -45.85761 | 2137 ft | 13 kts | 315° |
| 2026-04-27 17:15 | -23.22989 | -45.85834 | 2136 ft | 13 kts | 313° |
| 2026-04-27 17:15 | -23.22924 | -45.85903 | 2137 ft | 13 kts | 315° |
| 2026-04-27 17:15 | -23.22861 | -45.85972 | 2137 ft | 12 kts | 314° |
| 2026-04-27 17:15 | -23.22799 | -45.86039 | 2136 ft | 12 kts | 314° |
| 2026-04-27 17:16 | -23.22737 | -45.86107 | 2136 ft | 12 kts | 314° |
| 2026-04-27 17:16 | -23.22673 | -45.86176 | 2136 ft | 13 kts | 313° |
| 2026-04-27 17:16 | -23.22608 | -45.86246 | 2136 ft | 13 kts | 315° |
| 2026-04-27 17:16 | -23.22542 | -45.86317 | 2136 ft | 13 kts | 314° |
| 2026-04-27 17:17 | -23.22476 | -45.86389 | 2136 ft | 13 kts | 315° |
| 2026-04-27 17:17 | -23.22408 | -45.86462 | 2136 ft | 13 kts | 315° |
| 2026-04-27 17:17 | -23.22356 | -45.86543 | 2136 ft | 13 kts | 258° |
| 2026-04-27 17:18 | -23.22397 | -45.86598 | 2136 ft | 0 kts | 225° |
| 2026-04-27 17:19 | -23.22398 | -45.86599 | 2136 ft | 1 kts | 224° |
| 2026-04-27 17:19 | -23.22422 | -45.86625 | 2136 ft | 8 kts | 225° |
| 2026-04-27 17:19 | -23.22473 | -45.86645 | 2136 ft | 9 kts | 137° |
| 2026-04-27 17:19 | -23.22489 | -45.86630 | 2136 ft | 0 kts | 136° |
| 2026-04-27 17:20 | -23.22586 | -45.86528 | 2136 ft | 45 kts | 136° |
| 2026-04-27 17:20 | -23.22904 | -45.86179 | 2138 ft | 79 kts | 135° |
| 2026-04-27 17:21 | -23.23293 | -45.85763 | 2299 ft | 77 kts | 137° |
| 2026-04-27 17:21 | -23.23680 | -45.85348 | 2440 ft | 78 kts | 135° |
| 2026-04-27 17:21 | -23.24066 | -45.84931 | 2573 ft | 79 kts | 135° |
| 2026-04-27 17:21 | -23.24458 | -45.84510 | 2696 ft | 81 kts | 134° |
| 2026-04-27 17:22 | -23.24754 | -45.83983 | 2835 ft | 81 kts | 95° |
| 2026-04-27 17:22 | -23.24643 | -45.83425 | 3010 ft | 73 kts | 47° |
| 2026-04-27 17:22 | -23.24344 | -45.82988 | 3163 ft | 74 kts | 43° |
| 2026-04-27 17:22 | -23.23921 | -45.82696 | 3264 ft | 75 kts | 2° |
| 2026-04-27 17:23 | -23.23400 | -45.82848 | 3247 ft | 82 kts | 323° |
| 2026-04-27 17:23 | -23.22962 | -45.83281 | 3239 ft | 88 kts | 315° |
| 2026-04-27 17:23 | -23.22533 | -45.83769 | 3238 ft | 90 kts | 314° |
| 2026-04-27 17:23 | -23.22085 | -45.84264 | 3232 ft | 91 kts | 316° |
| 2026-04-27 17:24 | -23.21625 | -45.84736 | 3225 ft | 90 kts | 326° |
| 2026-04-27 17:24 | -23.21019 | -45.84813 | 3235 ft | 93 kts | 13° |
| 2026-04-27 17:24 | -23.20452 | -45.84433 | 3237 ft | 98 kts | 37° |
| 2026-04-27 17:24 | -23.19985 | -45.83902 | 3393 ft | 94 kts | 44° |
| 2026-04-27 17:25 | -23.19595 | -45.83367 | 3593 ft | 87 kts | 46° |
| 2026-04-27 17:25 | -23.19247 | -45.82855 | 3794 ft | 81 kts | 45° |
| 2026-04-27 17:25 | -23.18923 | -45.82378 | 3966 ft | 78 kts | 45° |
| 2026-04-27 17:25 | -23.18613 | -45.81895 | 4132 ft | 77 kts | 45° |
| 2026-04-27 17:26 | -23.18314 | -45.81421 | 4288 ft | 75 kts | 45° |
| 2026-04-27 17:26 | -23.18020 | -45.80952 | 4438 ft | 75 kts | 45° |
| 2026-04-27 17:26 | -23.17725 | -45.80475 | 4582 ft | 76 kts | 45° |
| 2026-04-27 17:26 | -23.17421 | -45.79987 | 4710 ft | 79 kts | 46° |
| 2026-04-27 17:27 | -23.17100 | -45.79480 | 4832 ft | 83 kts | 46° |
| 2026-04-27 17:27 | -23.16766 | -45.78961 | 4966 ft | 83 kts | 46° |
| 2026-04-27 17:27 | -23.16426 | -45.78434 | 5044 ft | 91 kts | 47° |
| 2026-04-27 17:27 | -23.16045 | -45.77853 | 5026 ft | 96 kts | 47° |
| 2026-04-27 17:28 | -23.15644 | -45.77261 | 5021 ft | 98 kts | 47° |
| 2026-04-27 17:28 | -23.15231 | -45.76657 | 5020 ft | 99 kts | 46° |
| 2026-04-27 17:28 | -23.14410 | -45.75447 | 5018 ft | 100 kts | 47° |
| 2026-04-27 17:29 | -23.13995 | -45.74833 | 5021 ft | 100 kts | 47° |
| 2026-04-27 17:29 | -23.13582 | -45.74223 | 5021 ft | 100 kts | 47° |
| 2026-04-27 17:29 | -23.13167 | -45.73607 | 5019 ft | 100 kts | 47° |
| 2026-04-27 17:29 | -23.12758 | -45.72997 | 5019 ft | 100 kts | 47° |
| 2026-04-27 17:30 | -23.12342 | -45.72386 | 5020 ft | 99 kts | 47° |
| 2026-04-27 17:30 | -23.11532 | -45.71158 | 5022 ft | 100 kts | 51° |
| 2026-04-27 17:30 | -23.11163 | -45.70524 | 5022 ft | 100 kts | 51° |
| 2026-04-27 17:31 | -23.10792 | -45.69880 | 5018 ft | 100 kts | 51° |
| 2026-04-27 17:31 | -23.10422 | -45.69240 | 5016 ft | 99 kts | 52° |
| 2026-04-27 17:31 | -23.10050 | -45.68597 | 5017 ft | 99 kts | 52° |
| 2026-04-27 17:31 | -23.09708 | -45.67941 | 5013 ft | 100 kts | 55° |
| 2026-04-27 17:32 | -23.09395 | -45.67261 | 5013 ft | 100 kts | 58° |
| 2026-04-27 17:32 | -23.08777 | -45.65901 | 5011 ft | 101 kts | 57° |
| 2026-04-27 17:32 | -23.08465 | -45.65213 | 5015 ft | 101 kts | 57° |
| 2026-04-27 17:33 | -23.08152 | -45.64522 | 5009 ft | 101 kts | 58° |
| 2026-04-27 17:33 | -23.07839 | -45.63842 | 5012 ft | 101 kts | 57° |
| 2026-04-27 17:33 | -23.07525 | -45.63160 | 5013 ft | 101 kts | 57° |
| 2026-04-27 17:33 | -23.07210 | -45.62472 | 5005 ft | 101 kts | 57° |
| 2026-04-27 17:34 | -23.06896 | -45.61787 | 5007 ft | 100 kts | 57° |
| 2026-04-27 17:34 | -23.06581 | -45.61114 | 5005 ft | 100 kts | 57° |
| 2026-04-27 17:34 | -23.06268 | -45.60440 | 5005 ft | 99 kts | 57° |
| 2026-04-27 17:34 | -23.05954 | -45.59775 | 5009 ft | 99 kts | 58° |
| 2026-04-27 17:35 | -23.05639 | -45.59108 | 5003 ft | 99 kts | 57° |
| 2026-04-27 17:35 | -23.05325 | -45.58434 | 5005 ft | 99 kts | 57° |
| 2026-04-27 17:35 | -23.05005 | -45.57763 | 4997 ft | 99 kts | 56° |
| 2026-04-27 17:35 | -23.04688 | -45.57103 | 4994 ft | 98 kts | 57° |
| 2026-04-27 17:36 | -23.04373 | -45.56449 | 4993 ft | 98 kts | 57° |
| 2026-04-27 17:36 | -23.04057 | -45.55789 | 5000 ft | 98 kts | 57° |
| 2026-04-27 17:36 | -23.03740 | -45.55131 | 5001 ft | 99 kts | 57° |
| 2026-04-27 17:36 | -23.03421 | -45.54465 | 5002 ft | 100 kts | 57° |
| 2026-04-27 17:37 | -23.03097 | -45.53796 | 4997 ft | 100 kts | 57° |
| 2026-04-27 17:37 | -23.02766 | -45.53120 | 4997 ft | 100 kts | 57° |
| 2026-04-27 17:37 | -23.02437 | -45.52450 | 4999 ft | 101 kts | 57° |
| 2026-04-27 17:37 | -23.02107 | -45.51770 | 4997 ft | 101 kts | 57° |
| 2026-04-27 17:38 | -23.01775 | -45.51095 | 4996 ft | 101 kts | 57° |
| 2026-04-27 17:38 | -23.01437 | -45.50410 | 4993 ft | 101 kts | 57° |
| 2026-04-27 17:38 | -23.01104 | -45.49740 | 4988 ft | 101 kts | 56° |
| 2026-04-27 17:38 | -23.00768 | -45.49063 | 4988 ft | 100 kts | 56° |
| 2026-04-27 17:39 | -23.00434 | -45.48397 | 4993 ft | 100 kts | 56° |
| 2026-04-27 17:39 | -23.00096 | -45.47726 | 4989 ft | 101 kts | 57° |
| 2026-04-27 17:39 | -22.99759 | -45.47060 | 4980 ft | 100 kts | 56° |
| 2026-04-27 17:39 | -22.99426 | -45.46397 | 4991 ft | 99 kts | 56° |
| 2026-04-27 17:40 | -22.99095 | -45.45733 | 4994 ft | 99 kts | 56° |
| 2026-04-27 17:40 | -22.98765 | -45.45078 | 5004 ft | 99 kts | 56° |
| 2026-04-27 17:40 | -22.98434 | -45.44417 | 5009 ft | 100 kts | 56° |
| 2026-04-27 17:40 | -22.98102 | -45.43754 | 5011 ft | 99 kts | 57° |
| 2026-04-27 17:41 | -22.97768 | -45.43091 | 5016 ft | 99 kts | 56° |
| 2026-04-27 17:41 | -22.97434 | -45.42431 | 5019 ft | 100 kts | 57° |
| 2026-04-27 17:41 | -22.97095 | -45.41771 | 5022 ft | 100 kts | 56° |
| 2026-04-27 17:41 | -22.96753 | -45.41107 | 5020 ft | 100 kts | 57° |
| 2026-04-27 17:42 | -22.96411 | -45.40438 | 5019 ft | 100 kts | 57° |
| 2026-04-27 17:42 | -22.96074 | -45.39782 | 5026 ft | 100 kts | 56° |
| 2026-04-27 17:42 | -22.95735 | -45.39120 | 5031 ft | 100 kts | 56° |
| 2026-04-27 17:42 | -22.95392 | -45.38456 | 5027 ft | 101 kts | 56° |
| 2026-04-27 17:43 | -22.95048 | -45.37787 | 5025 ft | 101 kts | 56° |
| 2026-04-27 17:43 | -22.94705 | -45.37120 | 5025 ft | 100 kts | 56° |
| 2026-04-27 17:43 | -22.94367 | -45.36462 | 5028 ft | 100 kts | 56° |
| 2026-04-27 17:43 | -22.94027 | -45.35797 | 5033 ft | 100 kts | 56° |
| 2026-04-27 17:44 | -22.93689 | -45.35136 | 5031 ft | 100 kts | 56° |
| 2026-04-27 17:44 | -22.93351 | -45.34470 | 5035 ft | 100 kts | 55° |
| 2026-04-27 17:44 | -22.93017 | -45.33808 | 5036 ft | 100 kts | 56° |
| 2026-04-27 17:44 | -22.92678 | -45.33147 | 5039 ft | 99 kts | 56° |
| 2026-04-27 17:45 | -22.92339 | -45.32489 | 5046 ft | 99 kts | 55° |
| 2026-04-27 17:45 | -22.91999 | -45.31845 | 5041 ft | 99 kts | 56° |
| 2026-04-27 17:45 | -22.91659 | -45.31202 | 5045 ft | 98 kts | 55° |
| 2026-04-27 17:45 | -22.91316 | -45.30558 | 5040 ft | 98 kts | 55° |
| 2026-04-27 17:46 | -22.90967 | -45.29911 | 5046 ft | 99 kts | 55° |
| 2026-04-27 17:46 | -22.90616 | -45.29268 | 5042 ft | 98 kts | 52° |
| 2026-04-27 17:46 | -22.90205 | -45.28672 | 5042 ft | 97 kts | 46° |
| 2026-04-27 17:46 | -22.89785 | -45.28097 | 5040 ft | 96 kts | 47° |
| 2026-04-27 17:47 | -22.89371 | -45.27518 | 4914 ft | 99 kts | 48° |
| 2026-04-27 17:47 | -22.89082 | -45.27120 | 4830 ft | 100 kts | 47° |
| 2026-04-27 17:47 | -22.88513 | -45.26318 | 4672 ft | 100 kts | 48° |
| 2026-04-27 17:47 | -22.88082 | -45.25720 | 4545 ft | 100 kts | 48° |
| 2026-04-27 17:48 | -22.87647 | -45.25126 | 4426 ft | 100 kts | 47° |
| 2026-04-27 17:48 | -22.87212 | -45.24533 | 4305 ft | 101 kts | 48° |
| 2026-04-27 17:48 | -22.86765 | -45.23933 | 4189 ft | 102 kts | 48° |
| 2026-04-27 17:48 | -22.86228 | -45.23456 | 4046 ft | 99 kts | 18° |
| 2026-04-27 17:49 | -22.85550 | -45.23399 | 3905 ft | 97 kts | 357° |
| 2026-04-27 17:49 | -22.84877 | -45.23459 | 3809 ft | 95 kts | 352° |
| 2026-04-27 17:49 | -22.84251 | -45.23512 | 3842 ft | 88 kts | 354° |
| 2026-04-27 17:49 | -22.83627 | -45.23526 | 3821 ft | 88 kts | 358° |
| 2026-04-27 17:50 | -22.83014 | -45.23523 | 3822 ft | 88 kts | 356° |
| 2026-04-27 17:50 | -22.81774 | -45.23482 | 3816 ft | 88 kts | 359° |
| 2026-04-27 17:50 | -22.81152 | -45.23449 | 3817 ft | 89 kts | 359° |
| 2026-04-27 17:51 | -22.80529 | -45.23409 | 3812 ft | 89 kts | 1° |
| 2026-04-27 17:51 | -22.79907 | -45.23334 | 3790 ft | 90 kts | 5° |
| 2026-04-27 17:51 | -22.79260 | -45.23238 | 3658 ft | 94 kts | 4° |
| 2026-04-27 17:51 | -22.78609 | -45.23157 | 3535 ft | 95 kts | 4° |
| 2026-04-27 17:52 | -22.77951 | -45.23091 | 3408 ft | 95 kts | 2° |
| 2026-04-27 17:52 | -22.77293 | -45.23024 | 3231 ft | 89 kts | 4° |
| 2026-04-27 17:52 | -22.76782 | -45.22744 | 3097 ft | 84 kts | 48° |
| 2026-04-27 17:52 | -22.76605 | -45.22121 | 2926 ft | 89 kts | 85° |
| 2026-04-27 17:53 | -22.76630 | -45.21444 | 2751 ft | 91 kts | 93° |
| 2026-04-27 17:53 | -22.76787 | -45.20816 | 2592 ft | 84 kts | 138° |
| 2026-04-27 17:53 | -22.77333 | -45.20522 | 2298 ft | 90 kts | 168° |
| 2026-04-27 17:53 | -22.77954 | -45.20494 | 2019 ft | 91 kts | 175° |
| 2026-04-27 17:54 | -22.78581 | -45.20492 | 1798 ft | 84 kts | 181° |
| 2026-04-27 17:54 | -22.79096 | -45.20480 | 1787 ft | 76 kts | 184° |
| 2026-04-27 17:54 | -22.79676 | -45.20463 | 1864 ft | 85 kts | 178° |
| 2026-04-27 17:54 | -22.80249 | -45.20458 | 2054 ft | 78 kts | 181° |
| 2026-04-27 17:55 | -22.80775 | -45.20478 | 2208 ft | 75 kts | 181° |
| 2026-04-27 17:55 | -22.81327 | -45.20532 | 2321 ft | 80 kts | 200° |
| 2026-04-27 17:55 | -22.81767 | -45.20892 | 2469 ft | 79 kts | 234° |
| 2026-04-27 17:55 | -22.82091 | -45.21369 | 2642 ft | 77 kts | 235° |
| 2026-04-27 17:56 | -22.82401 | -45.21838 | 2821 ft | 75 kts | 236° |
| 2026-04-27 17:56 | -22.82702 | -45.22287 | 2980 ft | 73 kts | 235° |
| 2026-04-27 17:56 | -22.83002 | -45.22730 | 3152 ft | 70 kts | 235° |
| 2026-04-27 17:56 | -22.83288 | -45.23142 | 3324 ft | 67 kts | 235° |
| 2026-04-27 17:57 | -22.83585 | -45.23577 | 3438 ft | 73 kts | 237° |
| 2026-04-27 17:57 | -22.83892 | -45.24046 | 3551 ft | 79 kts | 238° |
| 2026-04-27 17:57 | -22.84210 | -45.24536 | 3686 ft | 80 kts | 238° |
| 2026-04-27 17:57 | -22.84523 | -45.25036 | 3835 ft | 79 kts | 239° |
| 2026-04-27 17:58 | -22.84823 | -45.25520 | 4007 ft | 75 kts | 238° |
| 2026-04-27 17:58 | -22.85118 | -45.25993 | 4159 ft | 75 kts | 238° |
| 2026-04-27 17:58 | -22.85405 | -45.26454 | 4306 ft | 74 kts | 238° |
| 2026-04-27 17:58 | -22.85693 | -45.26915 | 4448 ft | 74 kts | 239° |
| 2026-04-27 17:59 | -22.85989 | -45.27380 | 4573 ft | 75 kts | 237° |
| 2026-04-27 17:59 | -22.86290 | -45.27856 | 4709 ft | 77 kts | 239° |
| 2026-04-27 17:59 | -22.86598 | -45.28342 | 4845 ft | 78 kts | 238° |
| 2026-04-27 17:59 | -22.86912 | -45.28831 | 4975 ft | 79 kts | 239° |
| 2026-04-27 18:00 | -22.87236 | -45.29334 | 5057 ft | 89 kts | 239° |
| 2026-04-27 18:00 | -22.87608 | -45.29923 | 5035 ft | 96 kts | 239° |
| 2026-04-27 18:00 | -22.87995 | -45.30533 | 5032 ft | 98 kts | 239° |
| 2026-04-27 18:00 | -22.88385 | -45.31148 | 5030 ft | 99 kts | 239° |
| 2026-04-27 18:01 | -22.88772 | -45.31762 | 5032 ft | 99 kts | 240° |
| 2026-04-27 18:01 | -22.89168 | -45.32384 | 5032 ft | 98 kts | 240° |
| 2026-04-27 18:01 | -22.89550 | -45.32990 | 5032 ft | 98 kts | 239° |
| 2026-04-27 18:01 | -22.89941 | -45.33603 | 5029 ft | 98 kts | 240° |
| 2026-04-27 18:02 | -22.90335 | -45.34216 | 5036 ft | 98 kts | 240° |
| 2026-04-27 18:02 | -22.90715 | -45.34827 | 5032 ft | 98 kts | 243° |
| 2026-04-27 18:02 | -22.91078 | -45.35459 | 5028 ft | 97 kts | 244° |
| 2026-04-27 18:02 | -22.91419 | -45.36086 | 5029 ft | 97 kts | 245° |
| 2026-04-27 18:03 | -22.91756 | -45.36722 | 5030 ft | 96 kts | 245° |
| 2026-04-27 18:03 | -22.92096 | -45.37355 | 5032 ft | 96 kts | 244° |
| 2026-04-27 18:03 | -22.92429 | -45.37974 | 5038 ft | 96 kts | 244° |
| 2026-04-27 18:03 | -22.92764 | -45.38603 | 5032 ft | 96 kts | 245° |
| 2026-04-27 18:04 | -22.93101 | -45.39232 | 5032 ft | 96 kts | 245° |
| 2026-04-27 18:04 | -22.93442 | -45.39869 | 5031 ft | 96 kts | 244° |
| 2026-04-27 18:04 | -22.93774 | -45.40498 | 5034 ft | 96 kts | 245° |
| 2026-04-27 18:04 | -22.94113 | -45.41133 | 5036 ft | 97 kts | 245° |
| 2026-04-27 18:05 | -22.94455 | -45.41775 | 5027 ft | 97 kts | 244° |
| 2026-04-27 18:05 | -22.94790 | -45.42404 | 5029 ft | 96 kts | 244° |
| 2026-04-27 18:05 | -22.95128 | -45.43038 | 5026 ft | 96 kts | 243° |
| 2026-04-27 18:05 | -22.95464 | -45.43667 | 5022 ft | 96 kts | 244° |
| 2026-04-27 18:06 | -22.95797 | -45.44297 | 5019 ft | 96 kts | 244° |
| 2026-04-27 18:06 | -22.96134 | -45.44925 | 5021 ft | 97 kts | 244° |
| 2026-04-27 18:06 | -22.96478 | -45.45563 | 5015 ft | 97 kts | 244° |
| 2026-04-27 18:06 | -22.96822 | -45.46195 | 5013 ft | 96 kts | 244° |
| 2026-04-27 18:07 | -22.97164 | -45.46820 | 5008 ft | 96 kts | 244° |
| 2026-04-27 18:07 | -22.97511 | -45.47448 | 5003 ft | 97 kts | 244° |
| 2026-04-27 18:07 | -22.97860 | -45.48082 | 5002 ft | 97 kts | 244° |
| 2026-04-27 18:07 | -22.98211 | -45.48716 | 4997 ft | 98 kts | 244° |
| 2026-04-27 18:08 | -22.98563 | -45.49354 | 4993 ft | 98 kts | 244° |
| 2026-04-27 18:08 | -22.98917 | -45.49997 | 4991 ft | 99 kts | 244° |
| 2026-04-27 18:08 | -22.99264 | -45.50636 | 4991 ft | 99 kts | 244° |
| 2026-04-27 18:08 | -22.99606 | -45.51289 | 4989 ft | 99 kts | 245° |
| 2026-04-27 18:09 | -22.99950 | -45.51941 | 4988 ft | 99 kts | 245° |
| 2026-04-27 18:09 | -23.00297 | -45.52596 | 4988 ft | 99 kts | 245° |
| 2026-04-27 18:09 | -23.00644 | -45.53247 | 4989 ft | 99 kts | 245° |
| 2026-04-27 18:09 | -23.00993 | -45.53901 | 4990 ft | 99 kts | 244° |
| 2026-04-27 18:10 | -23.01337 | -45.54544 | 4992 ft | 98 kts | 245° |
| 2026-04-27 18:10 | -23.01683 | -45.55190 | 4993 ft | 98 kts | 244° |
| 2026-04-27 18:10 | -23.02024 | -45.55839 | 4994 ft | 98 kts | 245° |
| 2026-04-27 18:10 | -23.02355 | -45.56482 | 4989 ft | 97 kts | 245° |
| 2026-04-27 18:11 | -23.02689 | -45.57131 | 4986 ft | 97 kts | 245° |
| 2026-04-27 18:11 | -23.03017 | -45.57765 | 4989 ft | 96 kts | 245° |
| 2026-04-27 18:11 | -23.03348 | -45.58398 | 4985 ft | 96 kts | 245° |
| 2026-04-27 18:11 | -23.03679 | -45.59023 | 4994 ft | 96 kts | 245° |
| 2026-04-27 18:12 | -23.04009 | -45.59652 | 4992 ft | 96 kts | 245° |
| 2026-04-27 18:12 | -23.04343 | -45.60283 | 4996 ft | 96 kts | 245° |
| 2026-04-27 18:12 | -23.04677 | -45.60921 | 4993 ft | 97 kts | 244° |
| 2026-04-27 18:12 | -23.05011 | -45.61559 | 4998 ft | 97 kts | 245° |
| 2026-04-27 18:13 | -23.05345 | -45.62199 | 4994 ft | 96 kts | 245° |
| 2026-04-27 18:13 | -23.05675 | -45.62830 | 4994 ft | 96 kts | 245° |
| 2026-04-27 18:13 | -23.06006 | -45.63465 | 4994 ft | 96 kts | 245° |
| 2026-04-27 18:13 | -23.06333 | -45.64097 | 4996 ft | 95 kts | 245° |
| 2026-04-27 18:14 | -23.06662 | -45.64728 | 4995 ft | 95 kts | 245° |
| 2026-04-27 18:14 | -23.06991 | -45.65355 | 4997 ft | 95 kts | 245° |
| 2026-04-27 18:14 | -23.07322 | -45.65973 | 4999 ft | 95 kts | 245° |
| 2026-04-27 18:14 | -23.07662 | -45.66606 | 5001 ft | 96 kts | 246° |
| 2026-04-27 18:15 | -23.07996 | -45.67227 | 5001 ft | 96 kts | 245° |
| 2026-04-27 18:15 | -23.08329 | -45.67856 | 5003 ft | 96 kts | 245° |
| 2026-04-27 18:15 | -23.08666 | -45.68494 | 5005 ft | 96 kts | 245° |
| 2026-04-27 18:15 | -23.09022 | -45.69118 | 5004 ft | 97 kts | 242° |
| 2026-04-27 18:16 | -23.09401 | -45.69730 | 5006 ft | 98 kts | 239° |
| 2026-04-27 18:16 | -23.09798 | -45.70332 | 4996 ft | 98 kts | 240° |
| 2026-04-27 18:16 | -23.10193 | -45.70938 | 4998 ft | 97 kts | 241° |
| 2026-04-27 18:16 | -23.10588 | -45.71534 | 4996 ft | 97 kts | 238° |
| 2026-04-27 18:17 | -23.11004 | -45.72122 | 4996 ft | 97 kts | 237° |
| 2026-04-27 18:17 | -23.11424 | -45.72691 | 4997 ft | 97 kts | 238° |
| 2026-04-27 18:17 | -23.11836 | -45.73275 | 4991 ft | 96 kts | 239° |
| 2026-04-27 18:17 | -23.12246 | -45.73865 | 4862 ft | 98 kts | 239° |
| 2026-04-27 18:18 | -23.12656 | -45.74464 | 4735 ft | 99 kts | 239° |
| 2026-04-27 18:18 | -23.13063 | -45.75061 | 4609 ft | 99 kts | 238° |
| 2026-04-27 18:18 | -23.13470 | -45.75667 | 4481 ft | 100 kts | 239° |
| 2026-04-27 18:18 | -23.13878 | -45.76282 | 4360 ft | 99 kts | 239° |
| 2026-04-27 18:19 | -23.14279 | -45.76892 | 4235 ft | 100 kts | 239° |
| 2026-04-27 18:19 | -23.14683 | -45.77512 | 4110 ft | 100 kts | 239° |
| 2026-04-27 18:19 | -23.15098 | -45.78123 | 3986 ft | 100 kts | 236° |
| 2026-04-27 18:19 | -23.15545 | -45.78696 | 3868 ft | 100 kts | 232° |
| 2026-04-27 18:20 | -23.16011 | -45.79265 | 3745 ft | 100 kts | 232° |
| 2026-04-27 18:20 | -23.16484 | -45.79828 | 3625 ft | 100 kts | 231° |
| 2026-04-27 18:20 | -23.16974 | -45.80367 | 3507 ft | 100 kts | 227° |
| 2026-04-27 18:20 | -23.17490 | -45.80880 | 3385 ft | 101 kts | 225° |
| 2026-04-27 18:21 | -23.18012 | -45.81401 | 3256 ft | 101 kts | 226° |
| 2026-04-27 18:21 | -23.18523 | -45.81914 | 3233 ft | 97 kts | 225° |
| 2026-04-27 18:21 | -23.19011 | -45.82420 | 3236 ft | 97 kts | 226° |
| 2026-04-27 18:21 | -23.19496 | -45.82940 | 3235 ft | 95 kts | 228° |
| 2026-04-27 18:22 | -23.19959 | -45.83437 | 3240 ft | 93 kts | 227° |
| 2026-04-27 18:22 | -23.20352 | -45.83977 | 3232 ft | 89 kts | 252° |
| 2026-04-27 18:22 | -23.20319 | -45.84628 | 3234 ft | 87 kts | 294° |
| 2026-04-27 18:22 | -23.19944 | -45.85133 | 3228 ft | 85 kts | 311° |
| 2026-04-27 18:23 | -23.19519 | -45.85586 | 3259 ft | 80 kts | 313° |
| 2026-04-27 18:23 | -23.19121 | -45.85998 | 3257 ft | 79 kts | 314° |
| 2026-04-27 18:23 | -23.18916 | -45.86509 | 3190 ft | 73 kts | 269° |
| 2026-04-27 18:23 | -23.19139 | -45.86994 | 3139 ft | 74 kts | 227° |
| 2026-04-27 18:24 | -23.19540 | -45.87374 | 3044 ft | 78 kts | 223° |
| 2026-04-27 18:24 | -23.19955 | -45.87749 | 2946 ft | 78 kts | 223° |
| 2026-04-27 18:24 | -23.20396 | -45.88086 | 2870 ft | 78 kts | 201° |
| 2026-04-27 18:24 | -23.20922 | -45.88034 | 2796 ft | 76 kts | 153° |
| 2026-04-27 18:25 | -23.21397 | -45.87711 | 2568 ft | 82 kts | 130° |
| 2026-04-27 18:25 | -23.21824 | -45.87328 | 2361 ft | 78 kts | 127° |
| 2026-04-27 18:25 | -23.22216 | -45.86923 | 2170 ft | 74 kts | 140° |
| 2026-04-27 18:25 | -23.22527 | -45.86590 | 2136 ft | 46 kts | 129° |
| 2026-04-27 18:26 | -23.22714 | -45.86386 | 2136 ft | 32 kts | 135° |
| 2026-04-27 18:26 | -23.22859 | -45.86227 | 2136 ft | 27 kts | 136° |
| 2026-04-27 18:26 | -23.22988 | -45.86090 | 2136 ft | 24 kts | 130° |
| 2026-04-27 18:26 | -23.23105 | -45.85962 | 2136 ft | 23 kts | 133° |
| 2026-04-27 18:27 | -23.23219 | -45.85838 | 2136 ft | 22 kts | 137° |
| 2026-04-27 18:27 | -23.23329 | -45.85719 | 2136 ft | 22 kts | 135° |
| 2026-04-27 18:27 | -23.23439 | -45.85600 | 2137 ft | 22 kts | 134° |
| 2026-04-27 18:27 | -23.23550 | -45.85480 | 2137 ft | 22 kts | 133° |
| 2026-04-27 18:28 | -23.23657 | -45.85364 | 2137 ft | 17 kts | 137° |
| 2026-04-27 18:28 | -23.23741 | -45.85278 | 2137 ft | 15 kts | 156° |
| 2026-04-27 18:28 | -23.23850 | -45.85283 | 2137 ft | 15 kts | 189° |
| 2026-04-27 18:28 | -23.23961 | -45.85289 | 2137 ft | 16 kts | 183° |
| 2026-04-27 18:29 | -23.24070 | -45.85315 | 2137 ft | 16 kts | 217° |
| 2026-04-27 18:29 | -23.24152 | -45.85400 | 2137 ft | 16 kts | 226° |
| 2026-04-27 18:29 | -23.24233 | -45.85487 | 2137 ft | 16 kts | 227° |
| 2026-04-27 18:29 | -23.24313 | -45.85573 | 2136 ft | 16 kts | 226° |
| 2026-04-27 18:30 | -23.24394 | -45.85661 | 2136 ft | 16 kts | 227° |
| 2026-04-27 18:30 | -23.24475 | -45.85746 | 2136 ft | 16 kts | 224° |
| 2026-04-27 18:30 | -23.24556 | -45.85830 | 2136 ft | 16 kts | 222° |
| 2026-04-27 18:30 | -23.24614 | -45.85887 | 2136 ft | 10 kts | 215° |
| 2026-04-27 18:31 | -23.24630 | -45.85927 | 2136 ft | 0 kts | 252° |